createdAt,value
2022-08-26T00:00:00.396Z,23.0
2022-08-26T00:01:00.308Z,23.0
2022-08-26T00:02:00.419Z,22.9
2022-08-26T00:03:00.294Z,22.9
2022-08-26T00:04:00.457Z,22.9
2022-08-26T00:05:00.304Z,22.9
2022-08-26T00:06:00.275Z,22.9
2022-08-26T00:07:00.328Z,23.0
2022-08-26T00:08:00.322Z,23.0
2022-08-26T00:09:00.311Z,22.9
2022-08-26T00:10:00.557Z,22.9
2022-08-26T00:11:00.362Z,22.9
2022-08-26T00:12:00.334Z,23.0
2022-08-26T00:13:00.312Z,23.0
2022-08-26T00:14:00.311Z,23.0
2022-08-26T00:15:00.484Z,22.9
2022-08-26T00:16:00.552Z,22.9
2022-08-26T00:17:00.432Z,22.9
2022-08-26T00:18:00.363Z,22.9
2022-08-26T00:19:00.381Z,22.9
2022-08-26T00:20:00.303Z,22.9
2022-08-26T00:21:00.301Z,22.9
2022-08-26T00:22:00.447Z,22.9
2022-08-26T00:23:00.293Z,22.9
2022-08-26T00:24:00.317Z,22.8
2022-08-26T00:25:00.292Z,22.9
2022-08-26T00:26:00.281Z,22.9
2022-08-26T00:27:00.311Z,22.9
2022-08-26T00:28:00.404Z,22.9
2022-08-26T00:29:00.297Z,22.9
2022-08-26T00:30:00.377Z,22.9
2022-08-26T00:31:00.290Z,22.8
2022-08-26T00:32:00.350Z,22.8
2022-08-26T00:33:00.339Z,22.8
2022-08-26T00:34:00.367Z,22.8
2022-08-26T00:35:00.318Z,22.8
2022-08-26T00:36:00.304Z,22.8
2022-08-26T00:37:00.293Z,22.8
2022-08-26T00:38:00.298Z,22.8
2022-08-26T00:39:00.320Z,22.8
2022-08-26T00:40:00.808Z,22.8
2022-08-26T00:41:00.292Z,22.7
2022-08-26T00:42:00.312Z,22.7
2022-08-26T00:43:00.357Z,22.7
2022-08-26T00:44:00.356Z,22.7
2022-08-26T00:45:00.302Z,22.7
2022-08-26T00:46:00.545Z,22.6
2022-08-26T00:47:00.365Z,22.6
2022-08-26T00:48:00.376Z,22.6
2022-08-26T00:49:00.333Z,22.7
2022-08-26T00:50:00.362Z,22.7
2022-08-26T00:51:00.337Z,22.7
2022-08-26T00:52:00.437Z,22.7
2022-08-26T00:53:00.445Z,22.7
2022-08-26T00:54:00.305Z,22.6
2022-08-26T00:55:00.333Z,22.6
2022-08-26T00:56:00.325Z,22.6
2022-08-26T00:57:00.364Z,22.6
2022-08-26T00:58:00.407Z,22.5
2022-08-26T00:59:00.306Z,22.4
2022-08-26T01:00:00.307Z,22.4
2022-08-26T01:01:00.437Z,22.3
2022-08-26T01:02:00.342Z,22.3
2022-08-26T01:03:00.307Z,22.3
2022-08-26T01:04:00.378Z,22.4
2022-08-26T01:05:00.410Z,22.4
2022-08-26T01:06:00.316Z,22.4
2022-08-26T01:07:00.295Z,22.4
2022-08-26T01:08:00.316Z,22.3
2022-08-26T01:09:00.307Z,22.3
2022-08-26T01:10:00.290Z,22.3
2022-08-26T01:11:00.497Z,22.3
2022-08-26T01:12:00.297Z,22.3
2022-08-26T01:13:00.315Z,22.4
2022-08-26T01:14:00.304Z,22.4
2022-08-26T01:15:00.292Z,22.4
2022-08-26T01:16:00.371Z,22.4
2022-08-26T01:17:00.461Z,22.4
2022-08-26T01:18:00.309Z,22.4
2022-08-26T01:19:00.280Z,22.4
2022-08-26T01:20:00.290Z,22.4
2022-08-26T01:21:00.359Z,22.3
2022-08-26T01:22:00.312Z,22.3
2022-08-26T01:23:05.456Z,22.3
2022-08-26T01:24:00.384Z,22.4
2022-08-26T01:25:00.344Z,22.3
2022-08-26T01:26:00.456Z,22.3
2022-08-26T01:27:00.313Z,22.3
2022-08-26T01:28:00.288Z,22.3
2022-08-26T01:29:00.314Z,22.3
2022-08-26T01:30:00.405Z,22.3
2022-08-26T01:31:00.280Z,22.3
2022-08-26T01:32:00.476Z,22.3
2022-08-26T01:33:00.278Z,22.2
2022-08-26T01:34:00.295Z,22.1
2022-08-26T01:35:00.401Z,22.0
2022-08-26T01:36:00.393Z,22.0
2022-08-26T01:37:00.411Z,21.9
2022-08-26T01:38:00.288Z,21.9
2022-08-26T01:39:00.284Z,21.9
2022-08-26T01:40:00.389Z,21.9
2022-08-26T01:41:00.292Z,21.9
2022-08-26T01:42:03.041Z,21.9
2022-08-26T01:43:00.329Z,21.9
2022-08-26T01:44:00.343Z,21.9
2022-08-26T01:45:00.309Z,22.0
2022-08-26T01:46:00.699Z,22.0
2022-08-26T01:47:00.304Z,22.0
2022-08-26T01:48:00.336Z,22.0
2022-08-26T01:49:00.336Z,21.9
2022-08-26T01:50:00.362Z,21.9
2022-08-26T01:51:00.336Z,21.9
2022-08-26T01:52:00.430Z,21.9
2022-08-26T01:53:00.351Z,21.9
2022-08-26T01:54:00.312Z,21.9
2022-08-26T01:55:00.293Z,21.9
2022-08-26T01:56:00.277Z,21.9
2022-08-26T01:57:00.305Z,21.9
2022-08-26T01:58:00.386Z,22.0
2022-08-26T01:59:00.301Z,22.0
2022-08-26T02:00:00.325Z,22.0
2022-08-26T02:01:00.355Z,22.0
2022-08-26T02:02:00.312Z,22.0
2022-08-26T02:03:00.315Z,22.0
2022-08-26T02:04:00.386Z,22.0
2022-08-26T02:05:00.458Z,22.0
2022-08-26T02:06:00.302Z,21.9
2022-08-26T02:07:00.381Z,21.9
2022-08-26T02:08:00.388Z,21.9
2022-08-26T02:09:00.308Z,21.9
2022-08-26T02:10:00.405Z,21.9
2022-08-26T02:11:00.293Z,21.9
2022-08-26T02:12:00.303Z,21.9
2022-08-26T02:13:00.284Z,21.9
2022-08-26T02:14:00.307Z,21.9
2022-08-26T02:15:00.380Z,21.9
2022-08-26T02:16:00.429Z,22.0
2022-08-26T02:17:00.314Z,21.9
2022-08-26T02:18:00.335Z,21.9
2022-08-26T02:19:00.365Z,21.9
2022-08-26T02:20:00.431Z,21.9
2022-08-26T02:21:00.311Z,22.0
2022-08-26T02:22:00.394Z,21.9
2022-08-26T02:23:00.368Z,21.9
2022-08-26T02:24:00.310Z,21.8
2022-08-26T02:25:00.289Z,21.8
2022-08-26T02:26:00.287Z,21.7
2022-08-26T02:27:00.376Z,21.7
2022-08-26T02:28:00.708Z,21.7
2022-08-26T02:29:00.295Z,21.7
2022-08-26T02:30:00.300Z,21.8
2022-08-26T02:31:00.294Z,21.8
2022-08-26T02:32:00.304Z,21.9
2022-08-26T02:33:00.277Z,21.9
2022-08-26T02:34:00.384Z,22.0
2022-08-26T02:35:00.310Z,22.0
2022-08-26T02:36:00.298Z,22.1
2022-08-26T02:37:00.301Z,22.1
2022-08-26T02:38:00.371Z,22.1
2022-08-26T02:39:00.307Z,22.1
2022-08-26T02:40:00.468Z,22.1
2022-08-26T02:41:00.309Z,22.1
2022-08-26T02:42:00.314Z,22.1
2022-08-26T02:43:00.280Z,22.1
2022-08-26T02:44:00.291Z,22.2
2022-08-26T02:45:00.362Z,22.2
2022-08-26T02:46:02.165Z,22.3
2022-08-26T02:47:00.336Z,22.3
2022-08-26T02:48:00.307Z,22.3
2022-08-26T02:49:00.318Z,22.3
2022-08-26T02:50:00.331Z,22.4
2022-08-26T02:51:00.312Z,22.4
2022-08-26T02:52:00.378Z,22.4
2022-08-26T02:53:00.390Z,22.5
2022-08-26T02:54:00.315Z,22.5
2022-08-26T02:55:00.292Z,22.6
2022-08-26T02:56:00.307Z,22.6
2022-08-26T02:57:00.309Z,22.6
2022-08-26T02:58:00.405Z,22.6
2022-08-26T02:59:00.307Z,22.6
2022-08-26T03:00:00.297Z,22.6
2022-08-26T03:01:00.409Z,22.6
2022-08-26T03:02:00.559Z,22.6
2022-08-26T03:03:00.463Z,22.7
2022-08-26T03:04:00.312Z,22.7
2022-08-26T03:05:02.222Z,22.8
2022-08-26T03:06:00.311Z,22.9
2022-08-26T03:07:00.310Z,22.9
2022-08-26T03:08:00.381Z,22.9
2022-08-26T03:09:00.320Z,23.0
2022-08-26T03:10:00.316Z,23.0
2022-08-26T03:11:01.554Z,23.1
2022-08-26T03:12:00.280Z,23.1
2022-08-26T03:13:00.296Z,23.1
2022-08-26T03:14:00.369Z,23.2
2022-08-26T03:15:00.300Z,23.2
2022-08-26T03:16:00.379Z,23.3
2022-08-26T03:17:00.373Z,23.3
2022-08-26T03:18:00.277Z,23.3
2022-08-26T03:19:00.362Z,23.4
2022-08-26T03:20:00.309Z,23.4
2022-08-26T03:21:00.311Z,23.5
2022-08-26T03:22:00.311Z,23.5
2022-08-26T03:23:00.400Z,23.5
2022-08-26T03:24:00.612Z,23.6
2022-08-26T03:25:00.358Z,23.6
2022-08-26T03:26:00.376Z,23.7
2022-08-26T03:27:00.365Z,23.7
2022-08-26T03:28:00.315Z,23.7
2022-08-26T03:29:00.297Z,23.8
2022-08-26T03:30:00.387Z,23.8
2022-08-26T03:31:00.408Z,23.9
2022-08-26T03:32:00.351Z,23.9
2022-08-26T03:33:00.304Z,24.0
2022-08-26T03:34:00.304Z,24.0
2022-08-26T03:35:00.443Z,24.1
2022-08-26T03:36:00.379Z,24.1
2022-08-26T03:37:00.320Z,24.2
2022-08-26T03:38:00.369Z,24.2
2022-08-26T03:39:00.279Z,24.2
2022-08-26T03:40:00.433Z,24.3
2022-08-26T03:41:00.385Z,24.3
2022-08-26T03:42:00.306Z,24.4
2022-08-26T03:43:00.313Z,24.5
2022-08-26T03:44:01.894Z,24.5
2022-08-26T03:45:00.307Z,24.6
2022-08-26T03:46:00.299Z,24.7
2022-08-26T03:47:00.380Z,24.7
2022-08-26T03:48:00.293Z,24.8
2022-08-26T03:49:00.272Z,24.8
2022-08-26T03:50:00.305Z,24.9
2022-08-26T03:51:00.292Z,25.0
2022-08-26T03:52:00.293Z,25.1
2022-08-26T03:53:00.458Z,25.1
2022-08-26T03:54:00.297Z,25.1
2022-08-26T03:55:00.378Z,25.2
2022-08-26T03:56:00.294Z,25.3
2022-08-26T03:57:00.293Z,25.3
2022-08-26T03:58:00.298Z,25.3
2022-08-26T03:59:00.441Z,25.3
2022-08-26T04:00:00.308Z,25.3
2022-08-26T04:01:00.289Z,25.4
2022-08-26T04:02:00.388Z,25.4
2022-08-26T04:03:00.357Z,25.4
2022-08-26T04:04:00.902Z,25.4
2022-08-26T04:05:00.388Z,25.4
2022-08-26T04:06:00.283Z,25.4
2022-08-26T04:07:00.291Z,25.4
2022-08-26T04:08:00.295Z,25.5
2022-08-26T04:09:00.426Z,25.5
2022-08-26T04:10:00.325Z,25.5
2022-08-26T04:11:00.433Z,25.5
2022-08-26T04:12:00.278Z,25.5
2022-08-26T04:13:00.310Z,25.6
2022-08-26T04:14:00.283Z,25.6
2022-08-26T04:15:00.280Z,25.7
2022-08-26T04:16:00.327Z,25.7
2022-08-26T04:17:00.378Z,25.8
2022-08-26T04:18:00.279Z,25.8
2022-08-26T04:19:00.320Z,25.9
2022-08-26T04:20:00.283Z,25.9
2022-08-26T04:21:00.313Z,26.0
2022-08-26T04:22:00.342Z,26.1
2022-08-26T04:23:00.407Z,26.2
2022-08-26T04:24:00.454Z,26.3
2022-08-26T04:25:00.366Z,26.3
2022-08-26T04:26:00.307Z,26.4
2022-08-26T04:27:00.293Z,26.4
2022-08-26T04:28:00.312Z,26.4
2022-08-26T04:29:00.598Z,26.5
2022-08-26T04:30:00.309Z,26.6
2022-08-26T04:31:00.360Z,26.6
2022-08-26T04:32:00.309Z,26.7
2022-08-26T04:33:00.293Z,26.7
2022-08-26T04:34:00.302Z,26.7
2022-08-26T04:35:00.783Z,26.8
2022-08-26T04:36:00.391Z,26.8
2022-08-26T04:37:00.278Z,26.8
2022-08-26T04:38:00.294Z,26.9
2022-08-26T04:39:00.371Z,26.9
2022-08-26T04:40:00.422Z,26.9
2022-08-26T04:41:00.425Z,27.0
2022-08-26T04:42:00.387Z,27.0
2022-08-26T04:43:00.391Z,27.0
2022-08-26T04:44:00.361Z,27.0
2022-08-26T04:45:00.315Z,27.0
2022-08-26T04:46:00.341Z,26.9
2022-08-26T04:47:00.332Z,26.9
2022-08-26T04:48:00.373Z,26.9
2022-08-26T04:49:00.302Z,26.9
2022-08-26T04:50:00.304Z,26.9
2022-08-26T04:51:00.425Z,27.0
2022-08-26T04:52:00.307Z,27.0
2022-08-26T04:53:00.295Z,27.0
2022-08-26T04:54:00.435Z,27.1
2022-08-26T04:55:00.331Z,27.1
2022-08-26T04:56:00.373Z,27.2
2022-08-26T04:57:00.432Z,27.2
2022-08-26T04:58:00.319Z,27.2
2022-08-26T04:59:00.306Z,27.2
2022-08-26T05:00:00.512Z,27.2
2022-08-26T05:01:00.373Z,28.1
2022-08-26T05:02:00.342Z,30.5
2022-08-26T05:03:00.349Z,32.6
2022-08-26T05:04:00.436Z,34.2
2022-08-26T05:05:00.313Z,35.6
2022-08-26T05:06:00.363Z,36.5
2022-08-26T05:07:00.288Z,37.4
2022-08-26T05:08:00.320Z,38.3
2022-08-26T05:09:00.311Z,39.0
2022-08-26T05:10:00.341Z,39.5
2022-08-26T05:11:00.392Z,39.9
2022-08-26T05:12:00.459Z,40.2
2022-08-26T05:13:00.307Z,40.5
2022-08-26T05:14:02.329Z,40.8
2022-08-26T05:15:00.305Z,40.8
2022-08-26T05:16:01.468Z,41.2
2022-08-26T05:17:00.296Z,41.7
2022-08-26T05:18:00.396Z,42.1
2022-08-26T05:19:00.291Z,42.4
2022-08-26T05:20:00.283Z,42.8
2022-08-26T05:21:00.307Z,43.3
2022-08-26T05:22:00.298Z,43.6
2022-08-26T05:23:00.363Z,43.8
2022-08-26T05:24:00.375Z,43.7
2022-08-26T05:25:00.309Z,43.6
2022-08-26T05:26:00.573Z,43.5
2022-08-26T05:27:00.297Z,43.7
2022-08-26T05:28:00.313Z,43.9
2022-08-26T05:29:00.337Z,44.2
2022-08-26T05:30:00.461Z,44.0
2022-08-26T05:31:00.363Z,43.7
2022-08-26T05:32:00.311Z,43.7
2022-08-26T05:33:00.365Z,43.8
2022-08-26T05:34:00.428Z,44.0
2022-08-26T05:35:00.338Z,44.0
2022-08-26T05:36:00.332Z,44.1
2022-08-26T05:37:00.363Z,44.3
2022-08-26T05:38:00.389Z,44.3
2022-08-26T05:39:00.382Z,44.2
2022-08-26T05:40:00.438Z,44.1
2022-08-26T05:41:00.335Z,44.0
2022-08-26T05:42:00.280Z,44.0
2022-08-26T05:43:00.285Z,44.0
2022-08-26T05:44:00.302Z,44.1
2022-08-26T05:45:00.403Z,44.3
2022-08-26T05:46:00.353Z,44.5
2022-08-26T05:47:00.301Z,44.5
2022-08-26T05:48:00.299Z,44.4
2022-08-26T05:49:00.306Z,44.4
2022-08-26T05:50:00.332Z,44.3
2022-08-26T05:51:00.388Z,44.3
2022-08-26T05:52:00.340Z,44.4
2022-08-26T05:53:00.311Z,44.6
2022-08-26T05:54:00.430Z,44.9
2022-08-26T05:55:00.324Z,45.1
2022-08-26T05:56:00.373Z,45.2
2022-08-26T05:57:00.421Z,45.4
2022-08-26T05:58:00.371Z,45.5
2022-08-26T05:59:00.308Z,45.6
2022-08-26T06:00:00.307Z,45.5
2022-08-26T06:01:00.486Z,45.4
2022-08-26T06:02:00.330Z,45.3
2022-08-26T06:03:00.469Z,45.4
2022-08-26T06:04:01.745Z,45.6
2022-08-26T06:05:00.299Z,45.9
2022-08-26T06:06:00.408Z,46.1
2022-08-26T06:07:00.402Z,46.2
2022-08-26T06:08:00.316Z,45.9
2022-08-26T06:09:00.296Z,46.0
2022-08-26T06:10:28.331Z,45.5
2022-08-26T06:11:00.306Z,45.1
2022-08-26T06:12:00.312Z,45.0
2022-08-26T06:13:04.389Z,45.1
2022-08-26T06:14:03.515Z,45.2
2022-08-26T06:15:00.307Z,45.4
2022-08-26T06:16:00.396Z,45.6
2022-08-26T06:17:00.358Z,45.6
2022-08-26T06:18:00.399Z,45.3
2022-08-26T06:19:00.468Z,45.4
2022-08-26T06:20:00.305Z,45.7
2022-08-26T06:21:00.390Z,45.9
2022-08-26T06:22:00.305Z,46.0
2022-08-26T06:23:00.305Z,45.7
2022-08-26T06:24:00.408Z,45.5
2022-08-26T06:25:00.298Z,45.7
2022-08-26T06:26:00.393Z,45.7
2022-08-26T06:27:00.316Z,45.9
2022-08-26T06:28:00.304Z,46.1
2022-08-26T06:29:00.291Z,46.3
2022-08-26T06:30:00.488Z,46.4
2022-08-26T06:31:00.337Z,46.4
2022-08-26T06:32:00.297Z,46.7
2022-08-26T06:33:00.349Z,47.0
2022-08-26T06:34:00.301Z,47.3
2022-08-26T06:35:00.348Z,47.5
2022-08-26T06:36:00.418Z,47.6
2022-08-26T06:37:01.188Z,47.5
2022-08-26T06:38:00.397Z,47.6
2022-08-26T06:39:00.303Z,47.5
2022-08-26T06:40:00.425Z,47.2
2022-08-26T06:41:00.525Z,46.9
2022-08-26T06:42:00.309Z,46.9
2022-08-26T06:43:00.306Z,46.7
2022-08-26T06:44:00.404Z,46.5
2022-08-26T06:45:00.309Z,46.3
2022-08-26T06:46:00.369Z,46.3
2022-08-26T06:47:00.315Z,46.6
2022-08-26T06:48:00.318Z,46.8
2022-08-26T06:49:00.357Z,46.7
2022-08-26T06:50:00.398Z,46.6
2022-08-26T06:51:00.292Z,46.6
2022-08-26T06:52:00.437Z,46.0
2022-08-26T06:53:00.351Z,45.7
2022-08-26T06:54:00.319Z,45.6
2022-08-26T06:55:00.551Z,45.8
2022-08-26T06:56:00.397Z,45.5
2022-08-26T06:57:00.307Z,45.6
2022-08-26T06:58:00.432Z,45.8
2022-08-26T06:59:00.475Z,46.0
2022-08-26T07:00:00.664Z,45.9
2022-08-26T07:01:03.737Z,45.7
2022-08-26T07:02:00.401Z,46.0
2022-08-26T07:03:00.408Z,46.2
2022-08-26T07:04:00.462Z,46.0
2022-08-26T07:05:00.317Z,45.9
2022-08-26T07:06:00.379Z,46.3
2022-08-26T07:07:00.450Z,46.7
2022-08-26T07:08:00.293Z,46.9
2022-08-26T07:09:00.445Z,47.0
2022-08-26T07:10:00.369Z,47.1
2022-08-26T07:11:00.311Z,46.9
2022-08-26T07:12:00.313Z,46.8
2022-08-26T07:13:00.302Z,46.8
2022-08-26T07:14:00.389Z,46.4
2022-08-26T07:15:00.379Z,46.1
2022-08-26T07:16:03.019Z,46.0
2022-08-26T07:17:00.282Z,46.3
2022-08-26T07:18:00.308Z,46.5
2022-08-26T07:19:01.138Z,46.7
2022-08-26T07:20:00.320Z,47.0
2022-08-26T07:21:00.405Z,47.3
2022-08-26T07:22:00.372Z,47.4
2022-08-26T07:23:00.320Z,47.6
2022-08-26T07:24:01.398Z,47.6
2022-08-26T07:25:00.339Z,47.2
2022-08-26T07:26:00.340Z,46.8
2022-08-26T07:27:00.383Z,47.1
2022-08-26T07:28:00.314Z,47.2
2022-08-26T07:29:00.321Z,47.3
2022-08-26T07:30:00.358Z,47.4
2022-08-26T07:31:00.379Z,47.4
2022-08-26T07:32:00.361Z,47.5
2022-08-26T07:33:00.471Z,47.7
2022-08-26T07:34:00.313Z,47.7
2022-08-26T07:35:00.280Z,47.4
2022-08-26T07:36:00.321Z,47.1
2022-08-26T07:37:00.387Z,47.1
2022-08-26T07:38:00.293Z,47.2
2022-08-26T07:39:00.381Z,47.2
2022-08-26T07:40:00.381Z,47.5
2022-08-26T07:41:00.297Z,47.7
2022-08-26T07:42:00.304Z,47.7
2022-08-26T07:43:00.941Z,47.8
2022-08-26T07:44:00.346Z,48.0
2022-08-26T07:45:00.573Z,47.9
2022-08-26T07:46:00.386Z,47.6
2022-08-26T07:47:00.327Z,47.5
2022-08-26T07:48:00.296Z,47.7
2022-08-26T07:49:00.355Z,47.9
2022-08-26T07:50:00.297Z,48.1
2022-08-26T07:51:00.379Z,48.2
2022-08-26T07:52:00.361Z,48.4
2022-08-26T07:53:00.304Z,48.4
2022-08-26T07:54:00.386Z,48.0
2022-08-26T07:55:00.278Z,47.8
2022-08-26T07:56:00.297Z,47.6
2022-08-26T07:57:00.409Z,47.6
2022-08-26T07:58:00.290Z,47.5
2022-08-26T07:59:00.290Z,47.6
2022-08-26T08:00:00.356Z,47.6
2022-08-26T08:01:00.337Z,47.7
2022-08-26T08:02:00.423Z,47.7
2022-08-26T08:03:00.405Z,47.8
2022-08-26T08:04:00.313Z,47.8
2022-08-26T08:05:00.479Z,47.7
2022-08-26T08:06:00.360Z,47.7
2022-08-26T08:07:00.394Z,47.5
2022-08-26T08:08:00.867Z,47.2
2022-08-26T08:09:00.466Z,47.2
2022-08-26T08:10:00.319Z,47.4
2022-08-26T08:11:00.408Z,47.6
2022-08-26T08:12:00.317Z,47.4
2022-08-26T08:13:00.421Z,47.5
2022-08-26T08:14:00.294Z,47.4
2022-08-26T08:15:00.382Z,47.4
2022-08-26T08:16:00.286Z,47.3
2022-08-26T08:17:00.399Z,47.3
2022-08-26T08:18:00.976Z,47.4
2022-08-26T08:19:00.309Z,47.5
2022-08-26T08:20:00.288Z,47.5
2022-08-26T08:21:21.432Z,47.5
2022-08-26T08:22:00.317Z,47.5
2022-08-26T08:23:00.311Z,47.5
2022-08-26T08:24:00.384Z,47.6
2022-08-26T08:25:00.313Z,47.6
2022-08-26T08:26:00.315Z,47.5
2022-08-26T08:27:00.382Z,47.0
2022-08-26T08:28:00.331Z,46.4
2022-08-26T08:29:00.304Z,46.3
2022-08-26T08:30:00.360Z,46.3
2022-08-26T08:31:00.516Z,46.4
2022-08-26T08:32:00.345Z,46.3
2022-08-26T08:33:00.441Z,46.2
2022-08-26T08:34:00.394Z,46.3
2022-08-26T08:35:00.366Z,46.4
2022-08-26T08:36:00.388Z,46.4
2022-08-26T08:37:00.333Z,46.3
2022-08-26T08:38:00.291Z,46.2
2022-08-26T08:39:00.444Z,46.1
2022-08-26T08:40:00.568Z,46.1
2022-08-26T08:41:00.310Z,46.0
2022-08-26T08:42:00.306Z,45.4
2022-08-26T08:43:00.342Z,44.8
2022-08-26T08:44:00.318Z,44.5
2022-08-26T08:45:00.397Z,44.4
2022-08-26T08:46:00.468Z,44.5
2022-08-26T08:47:00.354Z,44.6
2022-08-26T08:48:00.389Z,44.6
2022-08-26T08:49:00.299Z,44.6
2022-08-26T08:50:00.373Z,44.3
2022-08-26T08:51:00.300Z,44.1
2022-08-26T08:52:00.383Z,44.1
2022-08-26T08:53:00.288Z,44.2
2022-08-26T08:54:00.293Z,44.2
2022-08-26T08:55:00.320Z,44.2
2022-08-26T08:56:00.311Z,43.9
2022-08-26T08:57:00.296Z,43.9
2022-08-26T08:58:02.205Z,43.8
2022-08-26T08:59:00.301Z,43.6
2022-08-26T09:00:00.324Z,43.5
2022-08-26T09:01:00.416Z,43.2
2022-08-26T09:02:00.397Z,43.0
2022-08-26T09:03:00.393Z,42.7
2022-08-26T09:04:00.466Z,42.4
2022-08-26T09:05:00.367Z,42.2
2022-08-26T09:06:00.294Z,42.1
2022-08-26T09:07:00.314Z,41.8
2022-08-26T09:08:00.303Z,41.7
2022-08-26T09:09:00.379Z,41.6
2022-08-26T09:10:00.288Z,41.5
2022-08-26T09:11:00.441Z,41.4
2022-08-26T09:12:00.327Z,41.3
2022-08-26T09:13:00.327Z,41.2
2022-08-26T09:14:00.534Z,41.3
2022-08-26T09:15:00.403Z,41.2
2022-08-26T09:16:00.322Z,41.1
2022-08-26T09:17:00.373Z,41.1
2022-08-26T09:18:00.704Z,40.9
2022-08-26T09:19:00.309Z,40.8
2022-08-26T09:20:00.326Z,40.7
2022-08-26T09:21:00.392Z,40.5
2022-08-26T09:22:00.302Z,40.4
2022-08-26T09:23:01.654Z,40.2
2022-08-26T09:24:00.616Z,40.0
2022-08-26T09:25:00.319Z,39.7
2022-08-26T09:26:00.420Z,39.4
2022-08-26T09:27:00.296Z,39.1
2022-08-26T09:28:00.320Z,38.9
2022-08-26T09:29:00.405Z,38.9
2022-08-26T09:30:00.319Z,38.7
2022-08-26T09:31:00.425Z,38.7
2022-08-26T09:32:00.396Z,38.5
2022-08-26T09:33:00.416Z,38.3
2022-08-26T09:34:00.407Z,38.0
2022-08-26T09:35:00.675Z,37.7
2022-08-26T09:36:00.405Z,37.5
2022-08-26T09:37:00.311Z,37.4
2022-08-26T09:38:00.442Z,37.3
2022-08-26T09:39:00.446Z,37.2
2022-08-26T09:40:00.445Z,37.0
2022-08-26T09:41:00.422Z,36.9
2022-08-26T09:42:00.482Z,36.6
2022-08-26T09:43:00.473Z,36.2
2022-08-26T09:44:00.428Z,36.0
2022-08-26T09:45:00.421Z,35.9
2022-08-26T09:46:00.571Z,35.7
2022-08-26T09:47:00.582Z,35.6
2022-08-26T09:48:04.951Z,35.5
2022-08-26T09:49:00.297Z,35.4
2022-08-26T09:50:00.378Z,35.4
2022-08-26T09:51:00.352Z,35.3
2022-08-26T09:52:00.759Z,35.3
2022-08-26T09:53:00.385Z,35.3
2022-08-26T09:54:00.339Z,35.3
2022-08-26T09:55:00.438Z,35.3
2022-08-26T09:56:00.351Z,35.3
2022-08-26T09:57:00.441Z,35.2
2022-08-26T09:58:08.711Z,35.1
2022-08-26T09:59:00.338Z,34.9
2022-08-26T10:00:00.417Z,34.7
2022-08-26T10:01:00.576Z,34.6
2022-08-26T10:03:00.332Z,34.7
2022-08-26T10:04:00.527Z,34.7
2022-08-26T10:05:09.107Z,34.7
2022-08-26T10:06:00.311Z,34.7
2022-08-26T10:07:00.529Z,34.7
2022-08-26T10:08:00.495Z,34.6
2022-08-26T10:09:01.397Z,34.5
2022-08-26T10:10:00.570Z,34.5
2022-08-26T10:11:00.446Z,34.5
2022-08-26T10:12:00.516Z,34.6
2022-08-26T10:13:00.406Z,34.7
2022-08-26T10:14:00.361Z,34.6
2022-08-26T10:15:00.442Z,34.7
2022-08-26T10:16:00.537Z,34.7
2022-08-26T10:17:00.572Z,34.7
2022-08-26T10:18:00.518Z,34.6
2022-08-26T10:19:00.658Z,34.6
2022-08-26T10:20:00.448Z,34.6
2022-08-26T10:21:00.382Z,34.7
2022-08-26T10:22:00.626Z,34.8
2022-08-26T10:23:00.485Z,34.9
2022-08-26T10:24:00.376Z,35.0
2022-08-26T10:25:00.380Z,35.1
2022-08-26T10:26:00.385Z,35.1
2022-08-26T10:27:00.648Z,35.2
2022-08-26T10:28:00.393Z,35.2
2022-08-26T10:29:00.305Z,35.2
2022-08-26T10:30:00.276Z,35.2
2022-08-26T10:31:00.278Z,35.1
2022-08-26T10:32:02.497Z,35.1
2022-08-26T10:33:00.294Z,35.0
2022-08-26T10:34:00.749Z,35.0
2022-08-26T10:35:00.296Z,35.0
2022-08-26T10:36:00.276Z,35.0
2022-08-26T10:37:14.592Z,34.9
2022-08-26T10:38:00.335Z,34.7
2022-08-26T10:39:00.300Z,34.7
2022-08-26T10:40:00.421Z,34.4
2022-08-26T10:41:00.421Z,34.2
2022-08-26T10:42:00.291Z,34.2
2022-08-26T10:43:00.383Z,34.1
2022-08-26T10:44:00.931Z,34.1
2022-08-26T10:45:00.369Z,34.2
2022-08-26T10:46:00.367Z,34.3
2022-08-26T10:47:00.378Z,34.2
2022-08-26T10:48:00.319Z,34.0
2022-08-26T10:49:00.282Z,33.9
2022-08-26T10:50:02.956Z,34.0
2022-08-26T10:51:00.395Z,34.1
2022-08-26T10:52:00.341Z,34.1
2022-08-26T10:53:00.376Z,34.1
2022-08-26T10:54:00.293Z,34.2
2022-08-26T10:55:00.303Z,34.2
2022-08-26T10:56:00.278Z,34.3
2022-08-26T10:57:00.689Z,34.2
2022-08-26T10:58:00.289Z,34.1
2022-08-26T10:59:00.274Z,34.1
2022-08-26T11:00:00.306Z,34.2
2022-08-26T11:01:00.306Z,34.2
2022-08-26T11:02:00.289Z,34.1
2022-08-26T11:03:00.401Z,34.2
2022-08-26T11:04:00.436Z,34.3
2022-08-26T11:05:00.777Z,34.3
2022-08-26T11:06:00.274Z,34.2
2022-08-26T11:07:00.302Z,34.2
2022-08-26T11:08:00.296Z,34.2
2022-08-26T11:09:00.820Z,34.3
2022-08-26T11:10:00.322Z,34.3
2022-08-26T11:11:00.328Z,34.4
2022-08-26T11:12:03.893Z,34.5
2022-08-26T11:13:00.362Z,34.5
2022-08-26T11:14:00.376Z,34.5
2022-08-26T11:15:00.284Z,34.5
2022-08-26T11:16:01.106Z,34.5
2022-08-26T11:17:00.438Z,34.6
2022-08-26T11:18:00.537Z,34.6
2022-08-26T11:19:00.275Z,34.6
2022-08-26T11:20:01.963Z,34.5
2022-08-26T11:21:00.290Z,34.5
2022-08-26T11:22:00.291Z,34.5
2022-08-26T11:23:00.434Z,34.5
2022-08-26T11:24:00.286Z,34.4
2022-08-26T11:25:00.428Z,34.4
2022-08-26T11:26:00.446Z,34.4
2022-08-26T11:27:00.419Z,34.4
2022-08-26T11:28:00.679Z,34.4
2022-08-26T11:29:00.418Z,34.4
2022-08-26T11:30:00.295Z,34.4
2022-08-26T11:31:00.299Z,34.4
2022-08-26T11:32:00.340Z,34.4
2022-08-26T11:33:00.306Z,34.3
2022-08-26T11:34:00.286Z,34.3
2022-08-26T11:35:00.565Z,34.2
2022-08-26T11:36:00.384Z,34.2
2022-08-26T11:37:00.443Z,34.2
2022-08-26T11:38:00.509Z,34.2
2022-08-26T11:39:00.287Z,34.3
2022-08-26T11:40:00.387Z,34.3
2022-08-26T11:41:00.477Z,34.4
2022-08-26T11:42:00.398Z,34.4
2022-08-26T11:43:00.420Z,34.4
2022-08-26T11:44:01.252Z,34.4
2022-08-26T11:45:03.507Z,34.4
2022-08-26T11:46:00.407Z,34.4
2022-08-26T11:47:00.367Z,34.4
2022-08-26T11:48:00.418Z,34.4
2022-08-26T11:49:00.417Z,34.5
2022-08-26T11:50:00.407Z,34.5
2022-08-26T11:51:00.363Z,34.5
2022-08-26T11:52:00.298Z,34.4
2022-08-26T11:53:00.314Z,34.4
2022-08-26T11:54:00.291Z,34.4
2022-08-26T11:55:00.368Z,34.4
2022-08-26T11:56:00.404Z,34.4
2022-08-26T11:57:02.102Z,34.4
2022-08-26T11:58:00.454Z,34.4
2022-08-26T11:59:00.299Z,34.3
2022-08-26T12:00:00.313Z,34.3
2022-08-26T12:01:00.381Z,34.3
2022-08-26T12:02:00.281Z,34.3
2022-08-26T12:03:00.291Z,34.2
2022-08-26T12:04:00.993Z,34.2
2022-08-26T12:05:00.313Z,34.2
2022-08-26T12:06:00.297Z,34.3
2022-08-26T12:07:00.379Z,34.2
2022-08-26T12:08:00.302Z,34.1
2022-08-26T12:09:00.293Z,34.1
2022-08-26T12:10:00.594Z,34.1
2022-08-26T12:11:00.292Z,34.1
2022-08-26T12:12:00.302Z,34.1
2022-08-26T12:13:00.387Z,34.1
2022-08-26T12:14:00.311Z,34.1
2022-08-26T12:15:00.277Z,34.2
2022-08-26T12:16:00.353Z,34.2
2022-08-26T12:17:00.299Z,34.2
2022-08-26T12:18:00.386Z,34.3
2022-08-26T12:19:00.429Z,34.3
2022-08-26T12:20:00.324Z,34.3
2022-08-26T12:21:00.286Z,34.3
2022-08-26T12:22:00.310Z,34.3
2022-08-26T12:23:00.312Z,34.2
2022-08-26T12:24:00.389Z,34.2
2022-08-26T12:25:00.399Z,34.2
2022-08-26T12:26:00.331Z,34.2
2022-08-26T12:27:00.305Z,34.3
2022-08-26T12:28:00.300Z,34.3
2022-08-26T12:29:00.326Z,34.4
2022-08-26T12:30:00.370Z,34.4
2022-08-26T12:31:00.983Z,34.5
2022-08-26T12:32:00.365Z,34.5
2022-08-26T12:33:00.325Z,34.5
2022-08-26T12:34:00.289Z,34.5
2022-08-26T12:35:00.407Z,34.5
2022-08-26T12:36:00.298Z,34.4
2022-08-26T12:38:00.309Z,34.4
2022-08-26T12:39:00.297Z,34.3
2022-08-26T12:40:00.383Z,34.4
2022-08-26T12:41:00.651Z,34.4
2022-08-26T12:42:00.312Z,34.4
2022-08-26T12:43:00.319Z,34.2
2022-08-26T12:44:00.301Z,34.0
2022-08-26T12:45:00.413Z,33.9
2022-08-26T12:46:00.450Z,33.8
2022-08-26T12:47:00.319Z,33.7
2022-08-26T12:48:00.289Z,33.5
2022-08-26T12:49:00.295Z,33.5
2022-08-26T12:50:00.300Z,33.4
2022-08-26T12:51:00.568Z,33.5
2022-08-26T12:52:00.340Z,33.6
2022-08-26T12:53:00.344Z,33.7
2022-08-26T12:54:00.339Z,33.8
2022-08-26T12:55:00.305Z,33.9
2022-08-26T12:56:00.323Z,34.0
2022-08-26T12:57:00.452Z,34.1
2022-08-26T12:58:00.374Z,34.1
2022-08-26T12:59:00.376Z,34.1
2022-08-26T13:00:00.301Z,34.1
2022-08-26T13:01:00.589Z,34.1
2022-08-26T13:02:00.465Z,34.2
2022-08-26T13:03:00.295Z,34.2
2022-08-26T13:04:00.310Z,34.2
2022-08-26T13:05:00.854Z,34.2
2022-08-26T13:06:00.299Z,34.0
2022-08-26T13:07:00.320Z,34.0
2022-08-26T13:08:00.315Z,34.0
2022-08-26T13:09:00.294Z,34.0
2022-08-26T13:10:00.309Z,34.0
2022-08-26T13:11:00.392Z,34.1
2022-08-26T13:12:00.305Z,34.2
2022-08-26T13:13:00.303Z,34.3
2022-08-26T13:14:00.409Z,34.3
2022-08-26T13:15:00.394Z,34.3
2022-08-26T13:16:00.350Z,34.3
2022-08-26T13:17:00.311Z,34.3
2022-08-26T13:18:00.310Z,34.2
2022-08-26T13:19:00.291Z,34.2
2022-08-26T13:20:03.917Z,34.1